createdAt,value
2019-04-26T00:01:06.154Z,31.40
2019-04-26T00:03:16.820Z,29.05
2019-04-26T00:05:34.351Z,31.35
2019-04-26T00:07:35.375Z,29.67
2019-04-26T00:09:43.698Z,32.03
2019-04-26T00:11:53.370Z,30.32
2019-04-26T00:14:11.381Z,34.48
2019-04-26T00:16:21.595Z,32.88
2019-04-26T00:18:29.663Z,31.40
2019-04-26T00:20:37.909Z,32.33
2019-04-26T00:22:45.767Z,31.62
2019-04-26T00:24:54.036Z,34.73
2019-04-26T00:27:02.008Z,33.10
2019-04-26T00:29:11.264Z,35.00
2019-04-26T00:31:19.395Z,34.60
2019-04-26T00:33:27.429Z,36.08
2019-04-26T00:35:46.810Z,34.03
2019-04-26T00:37:46.712Z,33.75
2019-04-26T00:39:55.047Z,29.00
2019-04-26T00:42:03.839Z,29.40
2019-04-26T00:44:13.854Z,30.75
2019-04-26T00:46:25.003Z,32.00
2019-04-26T00:48:33.540Z,33.05
2019-04-26T00:50:41.773Z,29.45
2019-04-26T00:52:50.888Z,27.60
2019-04-26T00:55:00.111Z,32.60
2019-04-26T00:57:09.033Z,33.95
2019-04-26T00:59:18.390Z,30.10
2019-04-26T01:01:28.361Z,31.62
2019-04-26T01:03:36.635Z,36.60
2019-04-26T01:05:46.476Z,35.85
2019-04-26T01:07:56.180Z,33.10
2019-04-26T01:10:05.411Z,34.92
2019-04-26T01:12:13.613Z,35.00
2019-04-26T01:14:22.127Z,32.00
2019-04-26T01:16:30.380Z,31.73
2019-04-26T01:18:38.739Z,30.35
2019-04-26T01:20:50.353Z,30.70
2019-04-26T01:23:02.597Z,32.42
2019-04-26T01:25:38.290Z,32.58
2019-04-26T01:27:46.424Z,34.45
2019-04-26T01:29:59.135Z,31.40
2019-04-26T01:32:12.698Z,36.80
2019-04-26T01:34:22.055Z,34.58
2019-04-26T01:36:31.586Z,35.90
2019-04-26T01:38:39.534Z,32.80
2019-04-26T01:40:49.371Z,32.42
2019-04-26T01:42:59.067Z,34.45
2019-04-26T01:45:11.517Z,32.00
2019-04-26T01:47:20.773Z,34.45
2019-04-26T01:49:29.145Z,32.88
2019-04-26T01:51:43.407Z,31.62
2019-04-26T01:53:53.024Z,32.40
2019-04-26T01:56:00.958Z,31.45
2019-04-26T01:58:09.065Z,30.50
2019-04-26T02:00:25.546Z,30.70
2019-04-26T02:02:39.040Z,32.63
2019-04-26T02:04:50.123Z,28.35
2019-04-26T02:06:58.096Z,30.35
2019-04-26T02:09:09.258Z,27.58
2019-04-26T02:11:17.430Z,28.65
2019-04-26T02:13:26.827Z,29.32
2019-04-26T02:15:35.492Z,30.35
2019-04-26T02:17:45.831Z,30.75
2019-04-26T02:19:53.978Z,30.23
2019-04-26T02:22:03.652Z,30.08
2019-04-26T02:24:23.901Z,29.90
2019-04-26T02:26:36.729Z,31.93
2019-04-26T02:28:44.632Z,32.63
2019-04-26T02:30:53.778Z,34.30
2019-04-26T02:33:02.102Z,33.50
2019-04-26T02:35:11.782Z,33.15
2019-04-26T02:37:20.076Z,32.90
2019-04-26T02:39:37.526Z,34.00
2019-04-26T02:41:47.508Z,33.53
2019-04-26T02:43:59.950Z,37.28
2019-04-26T02:46:13.452Z,34.90
2019-04-26T02:48:30.839Z,33.70
2019-04-26T02:50:44.151Z,34.18
2019-04-26T02:53:11.809Z,36.03
2019-04-26T02:55:57.692Z,33.88
2019-04-26T02:58:05.968Z,35.88
2019-04-26T03:00:18.952Z,37.28
2019-04-26T03:02:30.231Z,33.83
2019-04-26T03:04:40.019Z,33.38
2019-04-26T03:07:02.519Z,31.62
2019-04-26T03:09:01.329Z,34.25
2019-04-26T03:11:17.486Z,33.80
2019-04-26T03:13:34.872Z,32.58
2019-04-26T03:16:07.675Z,30.85
2019-04-26T03:18:31.678Z,31.52
2019-04-26T03:20:44.486Z,33.58
2019-04-26T03:23:18.089Z,33.65
2019-04-26T03:25:38.830Z,33.15
2019-04-26T03:28:03.369Z,31.45
2019-04-26T03:30:25.087Z,32.88
2019-04-26T03:32:54.111Z,31.20
2019-04-26T03:35:36.809Z,30.45
2019-04-26T03:37:54.154Z,28.57
2019-04-26T03:40:42.421Z,28.75
2019-04-26T03:43:12.995Z,23.67
2019-04-26T03:45:52.590Z,24.98
2019-04-26T03:48:21.319Z,25.75
2019-04-26T03:50:42.841Z,26.42
2019-04-26T03:53:16.728Z,26.82
2019-04-26T03:55:34.375Z,27.10
2019-04-26T03:58:15.321Z,31.00
2019-04-26T04:00:30.250Z,29.52
2019-04-26T04:03:03.141Z,29.87
2019-04-26T04:05:40.125Z,29.77
2019-04-26T04:07:51.712Z,29.52
2019-04-26T04:10:13.133Z,30.55
2019-04-26T04:12:31.331Z,32.33
2019-04-26T04:14:55.587Z,31.70
2019-04-26T04:17:15.354Z,30.17
2019-04-26T04:19:55.224Z,28.95
2019-04-26T04:22:15.334Z,27.95
2019-04-26T04:24:30.719Z,28.55
2019-04-26T04:27:00.797Z,30.50
2019-04-26T04:29:42.535Z,29.27
2019-04-26T04:32:00.741Z,28.27
2019-04-26T04:34:33.616Z,27.77
2019-04-26T04:36:48.271Z,29.20
2019-04-26T04:39:23.140Z,28.12
2019-04-26T04:41:59.106Z,28.60
2019-04-26T04:44:34.051Z,30.10
2019-04-26T04:46:54.114Z,29.85
2019-04-26T04:49:25.014Z,30.05
2019-04-26T04:52:29.501Z,29.23
2019-04-26T04:55:09.498Z,28.42
2019-04-26T04:57:56.915Z,25.40
2019-04-26T05:00:19.979Z,23.73
2019-04-26T05:02:46.673Z,21.05
2019-04-26T05:05:34.134Z,21.85
2019-04-26T05:08:23.249Z,21.05
2019-04-26T05:11:10.166Z,21.15
2019-04-26T05:13:42.324Z,20.48
2019-04-26T05:16:23.712Z,20.52
2019-04-26T05:18:58.878Z,22.10
2019-04-26T05:21:35.778Z,21.30
2019-04-26T05:24:08.647Z,22.52
2019-04-26T05:26:29.493Z,21.00
2019-04-26T05:29:07.664Z,20.75
2019-04-26T05:31:48.528Z,20.92
2019-04-26T05:34:23.969Z,19.77
2019-04-26T05:36:36.683Z,20.15
2019-04-26T05:39:09.263Z,18.92
2019-04-26T05:41:44.101Z,18.37
2019-04-26T05:44:35.453Z,18.52
2019-04-26T05:47:24.305Z,17.17
2019-04-26T05:50:13.297Z,16.05
2019-04-26T05:52:55.867Z,17.02
2019-04-26T05:55:54.108Z,16.45
2019-04-26T05:58:29.177Z,14.28
2019-04-26T06:01:19.232Z,15.15
2019-04-26T06:03:52.873Z,13.93
2019-04-26T06:06:33.892Z,13.05
2019-04-26T06:08:59.624Z,14.13
2019-04-26T06:11:13.865Z,13.80
2019-04-26T06:13:53.717Z,13.32
2019-04-26T06:16:48.020Z,12.20
2019-04-26T06:19:20.733Z,11.60
2019-04-26T06:22:11.207Z,12.03
2019-04-26T06:24:39.472Z,11.83
2019-04-26T06:27:14.251Z,12.60
2019-04-26T06:29:58.681Z,11.35
2019-04-26T06:32:37.949Z,10.58
2019-04-26T06:35:03.580Z,10.78
2019-04-26T06:37:27.311Z,10.68
2019-04-26T06:39:39.875Z,10.78
2019-04-26T06:42:09.159Z,10.60
2019-04-26T06:44:29.561Z,10.05
2019-04-26T06:46:49.449Z,11.10
2019-04-26T06:49:24.045Z,9.63
2019-04-26T06:51:45.369Z,10.38
2019-04-26T06:54:19.137Z,9.70
2019-04-26T06:56:48.104Z,10.30
2019-04-26T06:59:40.210Z,9.08
2019-04-26T07:01:59.045Z,9.43
2019-04-26T07:04:50.600Z,9.05
2019-04-26T07:07:17.965Z,9.70
2019-04-26T07:09:35.908Z,9.53
2019-04-26T07:12:29.903Z,8.23
2019-04-26T07:15:10.129Z,8.05
2019-04-26T07:17:51.439Z,7.47
2019-04-26T07:20:29.577Z,7.72
2019-04-26T07:23:14.193Z,7.95
2019-04-26T07:26:01.703Z,7.65
2019-04-26T07:28:47.791Z,7.10
2019-04-26T07:31:08.584Z,7.95
2019-04-26T07:33:46.165Z,8.05
2019-04-26T07:36:10.437Z,8.10
2019-04-26T07:39:20.315Z,7.33
2019-04-26T07:42:09.490Z,6.85
2019-04-26T07:44:50.982Z,6.80
2019-04-26T07:47:41.665Z,6.85
2019-04-26T07:50:33.221Z,7.05
2019-04-26T07:53:13.755Z,6.40
2019-04-26T07:55:38.291Z,6.50
2019-04-26T07:58:24.291Z,38.58
2019-04-26T08:00:44.937Z,6.45
2019-04-26T08:03:04.139Z,13.13
2019-04-26T08:05:25.572Z,7.35
2019-04-26T08:07:43.695Z,6.35
2019-04-26T08:10:06.008Z,7.12
2019-04-26T08:12:19.733Z,5.75
2019-04-26T08:14:54.407Z,6.65
2019-04-26T08:17:30.242Z,5.78
2019-04-26T08:19:59.562Z,6.25
2019-04-26T08:22:17.906Z,10.78
2019-04-26T08:24:27.864Z,8.33
2019-04-26T08:26:37.489Z,6.20
2019-04-26T08:28:48.261Z,5.87
2019-04-26T08:30:58.126Z,7.58
2019-04-26T08:33:12.835Z,8.18
2019-04-26T08:35:21.976Z,6.95
2019-04-26T08:37:45.570Z,8.43
2019-04-26T08:39:56.603Z,6.90
2019-04-26T08:42:09.034Z,7.75
2019-04-26T08:44:33.862Z,7.60
2019-04-26T08:46:51.064Z,7.55
2019-04-26T08:49:08.283Z,5.78
2019-04-26T08:51:22.950Z,6.20
2019-04-26T08:53:36.680Z,6.08
2019-04-26T08:55:46.789Z,6.40
2019-04-26T08:57:59.278Z,6.75
2019-04-26T09:00:24.080Z,6.50
2019-04-26T09:02:39.160Z,5.92
2019-04-26T09:04:57.402Z,6.75
2019-04-26T09:07:09.835Z,5.85
2019-04-26T09:09:23.027Z,5.80
2019-04-26T09:11:34.017Z,6.53
2019-04-26T09:13:45.803Z,6.60
2019-04-26T09:16:10.006Z,5.65
2019-04-26T09:18:18.115Z,6.42
2019-04-26T09:20:29.407Z,6.80
2019-04-26T09:22:35.583Z,5.97
2019-04-26T09:25:03.292Z,6.17
2019-04-26T09:27:20.801Z,6.55
2019-04-26T09:29:34.861Z,6.22
2019-04-26T09:32:05.399Z,6.80
2019-04-26T09:34:18.431Z,5.90
2019-04-26T09:36:26.311Z,6.40
2019-04-26T09:38:34.297Z,6.58
2019-04-26T09:40:42.560Z,6.03
2019-04-26T09:43:10.419Z,6.78
2019-04-26T09:45:22.632Z,6.58
2019-04-26T09:47:38.391Z,6.45
2019-04-26T09:50:01.485Z,7.22
2019-04-26T09:52:11.117Z,6.40
2019-04-26T09:54:19.227Z,7.17
2019-04-26T09:56:28.083Z,6.72
2019-04-26T09:58:37.173Z,15.20
2019-04-26T10:00:48.644Z,7.12
2019-04-26T10:02:54.779Z,9.80
2019-04-26T10:05:02.685Z,6.58
2019-04-26T10:07:10.845Z,5.67
2019-04-26T10:09:21.244Z,5.17
2019-04-26T10:11:30.919Z,5.35
2019-04-26T10:13:56.670Z,6.47
2019-04-26T10:16:13.711Z,6.75
2019-04-26T10:18:24.282Z,5.80
2019-04-26T10:20:33.779Z,5.42
2019-04-26T10:22:41.635Z,5.67
2019-04-26T10:24:49.523Z,6.28
2019-04-26T10:26:59.204Z,5.97
2019-04-26T10:29:07.442Z,5.62
2019-04-26T10:31:17.216Z,5.42
2019-04-26T10:33:24.950Z,4.92
2019-04-26T10:35:33.362Z,4.83
2019-04-26T10:37:43.853Z,4.85
2019-04-26T10:39:51.066Z,4.53
2019-04-26T10:41:59.262Z,4.97
2019-04-26T10:44:07.427Z,6.00
2019-04-26T10:46:16.626Z,4.97
2019-04-26T10:48:24.541Z,4.87
2019-04-26T10:50:34.313Z,5.37
2019-04-26T10:52:54.387Z,6.30
2019-04-26T10:55:18.940Z,5.97
2019-04-26T10:57:41.856Z,5.95
2019-04-26T10:59:58.539Z,5.42
2019-04-26T11:02:09.990Z,5.87
2019-04-26T11:04:17.896Z,5.42
2019-04-26T11:06:27.842Z,5.08
2019-04-26T11:08:36.529Z,6.42
2019-04-26T11:10:48.909Z,5.45
2019-04-26T11:12:54.298Z,5.45
2019-04-26T11:15:02.116Z,4.90
2019-04-26T11:17:11.589Z,5.03
2019-04-26T11:19:20.355Z,4.87
2019-04-26T11:21:29.325Z,4.85
2019-04-26T11:23:41.089Z,4.42
2019-04-26T11:25:47.380Z,4.95
2019-04-26T11:27:55.382Z,4.80
2019-04-26T11:30:11.518Z,5.70
2019-04-26T11:32:13.174Z,4.80
2019-04-26T11:34:23.571Z,4.83
2019-04-26T11:36:31.155Z,4.85
2019-04-26T11:38:40.031Z,4.72
2019-04-26T11:40:49.838Z,4.75
2019-04-26T11:42:57.832Z,4.22
2019-04-26T11:45:14.203Z,4.65
2019-04-26T11:47:20.143Z,4.70
2019-04-26T11:49:28.266Z,4.58
2019-04-26T11:51:36.640Z,6.50
2019-04-26T11:53:46.156Z,4.20
2019-04-26T11:55:54.184Z,4.90
2019-04-26T11:58:02.075Z,4.50
2019-04-26T12:00:12.122Z,4.05
2019-04-26T12:02:20.190Z,4.22
2019-04-26T12:04:29.625Z,4.83
2019-04-26T12:06:39.086Z,4.35
2019-04-26T12:08:49.722Z,3.80
2019-04-26T12:10:58.688Z,4.30
2019-04-26T12:13:06.575Z,3.92
2019-04-26T12:15:15.481Z,4.10
2019-04-26T12:17:23.350Z,4.50
2019-04-26T12:19:31.205Z,4.05
2019-04-26T12:21:39.031Z,4.58
2019-04-26T12:23:47.300Z,4.47
2019-04-26T12:25:55.278Z,3.77
2019-04-26T12:28:05.981Z,4.53
2019-04-26T12:30:15.438Z,4.83
2019-04-26T12:32:23.310Z,4.20
2019-04-26T12:34:31.214Z,4.05
2019-04-26T12:36:39.403Z,4.22
2019-04-26T12:38:47.295Z,4.10
2019-04-26T12:40:55.297Z,4.28
2019-04-26T12:43:04.444Z,4.25
2019-04-26T12:45:32.821Z,4.60
2019-04-26T12:47:58.918Z,4.33
2019-04-26T12:50:07.691Z,3.92
2019-04-26T12:52:17.597Z,4.15
2019-04-26T12:54:25.165Z,4.37
2019-04-26T12:56:33.069Z,4.20
2019-04-26T12:58:40.863Z,4.37
2019-04-26T13:00:54.113Z,3.90
2019-04-26T13:02:59.832Z,3.92
2019-04-26T13:05:08.429Z,4.35
2019-04-26T13:07:24.014Z,3.90
2019-04-26T13:09:32.598Z,3.92
2019-04-26T13:11:48.974Z,4.40
2019-04-26T13:14:00.618Z,4.47
2019-04-26T13:16:10.208Z,4.12
2019-04-26T13:18:18.406Z,3.67
2019-04-26T13:20:28.847Z,3.87
2019-04-26T13:22:45.872Z,4.42
2019-04-26T13:24:45.657Z,4.55
2019-04-26T13:26:53.622Z,3.83
2019-04-26T13:29:01.672Z,3.70
2019-04-26T13:31:09.566Z,3.92
2019-04-26T13:33:17.526Z,4.10
2019-04-26T13:35:25.611Z,4.12
2019-04-26T13:37:35.690Z,3.85
2019-04-26T13:39:43.650Z,3.62
2019-04-26T13:42:02.083Z,3.47
2019-04-26T13:44:05.656Z,3.77
2019-04-26T13:46:29.201Z,3.72
2019-04-26T13:48:54.091Z,3.75
2019-04-26T13:51:14.377Z,3.58
2019-04-26T13:53:25.777Z,3.80
2019-04-26T13:55:33.820Z,3.67
2019-04-26T13:57:44.585Z,4.10
2019-04-26T13:59:52.251Z,4.03
2019-04-26T14:02:11.265Z,3.62
2019-04-26T14:04:12.130Z,4.17
2019-04-26T14:06:20.526Z,3.90
2019-04-26T14:08:28.798Z,3.77
2019-04-26T14:10:36.991Z,4.08
2019-04-26T14:12:49.996Z,4.55
2019-04-26T14:14:58.609Z,3.58
2019-04-26T14:17:06.878Z,3.50
2019-04-26T14:19:16.651Z,3.65
2019-04-26T14:21:24.564Z,3.40
2019-04-26T14:23:37.906Z,3.80
2019-04-26T14:25:49.186Z,3.77
2019-04-26T14:27:56.961Z,3.87
2019-04-26T14:30:08.479Z,3.58
2019-04-26T14:32:17.541Z,3.40
2019-04-26T14:34:25.541Z,3.92
2019-04-26T14:36:33.414Z,3.77
2019-04-26T14:38:41.373Z,4.78
2019-04-26T14:41:02.788Z,4.15
2019-04-26T14:43:06.599Z,3.50
2019-04-26T14:45:22.436Z,3.80
2019-04-26T14:47:18.867Z,3.60
2019-04-26T14:49:38.439Z,4.65
2019-04-26T14:51:36.421Z,3.22
2019-04-26T14:53:44.394Z,3.90
2019-04-26T14:55:54.598Z,3.65
2019-04-26T14:58:02.973Z,3.58
2019-04-26T15:00:16.637Z,3.65
2019-04-26T15:02:47.237Z,3.62
2019-04-26T15:04:58.095Z,3.50
2019-04-26T15:07:06.381Z,4.78
2019-04-26T15:09:19.549Z,4.05
2019-04-26T15:11:52.763Z,3.52
2019-04-26T15:16:26.673Z,3.50
2019-04-26T15:18:37.102Z,3.70
2019-04-26T15:20:57.082Z,3.52
2019-04-26T15:23:13.250Z,4.08
2019-04-26T15:25:36.910Z,3.87
2019-04-26T15:27:46.806Z,3.62
2019-04-26T15:30:07.366Z,3.67
2019-04-26T15:32:15.462Z,4.37
2019-04-26T15:34:26.409Z,3.60
2019-04-26T15:36:49.514Z,4.22
2019-04-26T15:41:30.968Z,4.00
2019-04-26T15:43:42.870Z,4.30
2019-04-26T15:46:12.399Z,4.83
2019-04-26T15:48:36.416Z,4.92
2019-04-26T15:50:52.022Z,4.60
2019-04-26T15:53:02.506Z,5.70
2019-04-26T15:55:10.649Z,4.35
2019-04-26T16:00:14.210Z,5.08
2019-04-26T16:02:26.082Z,4.75
2019-04-26T16:04:32.560Z,4.78
2019-04-26T16:06:41.905Z,5.22
2019-04-26T16:08:50.175Z,5.70
2019-04-26T16:10:58.072Z,4.90
2019-04-26T16:13:18.528Z,5.10
2019-04-26T16:15:16.958Z,5.00
2019-04-26T16:17:25.923Z,5.78
2019-04-26T16:19:34.035Z,5.80
2019-04-26T16:21:42.545Z,5.83
2019-04-26T16:23:52.016Z,5.90
2019-04-26T16:26:00.187Z,6.67
2019-04-26T16:28:27.144Z,6.10
2019-04-26T16:30:37.683Z,6.28
2019-04-26T16:33:03.319Z,6.25
2019-04-26T16:35:32.421Z,6.40
2019-04-26T16:40:26.327Z,6.62
2019-04-26T16:42:35.276Z,7.37
2019-04-26T16:44:45.041Z,7.22
2019-04-26T16:47:01.142Z,7.58
2019-04-26T16:49:05.817Z,7.45
2019-04-26T16:51:14.483Z,7.33
2019-04-26T16:55:35.529Z,8.23
2019-04-26T16:57:53.681Z,9.70
2019-04-26T16:59:57.523Z,9.28
2019-04-26T17:00:32.162Z,8.38
2019-04-26T17:02:02.426Z,9.58
2019-04-26T17:04:14.304Z,14.05
2019-04-26T17:06:23.331Z,14.58
2019-04-26T17:08:31.395Z,22.27
2019-04-26T17:10:39.339Z,18.10
2019-04-26T17:12:50.555Z,20.57
2019-04-26T17:14:56.743Z,18.40
2019-04-26T17:17:10.494Z,22.02
2019-04-26T17:19:19.733Z,20.23
2019-04-26T17:21:28.092Z,27.70
2019-04-26T17:23:41.580Z,30.20
2019-04-26T17:26:06.652Z,28.23
2019-04-26T17:28:17.952Z,21.37
2019-04-26T17:30:26.736Z,22.32
2019-04-26T17:32:35.145Z,24.80
2019-04-26T17:34:43.407Z,21.77
2019-04-26T17:36:52.261Z,22.85
2019-04-26T17:39:00.678Z,24.63
2019-04-26T17:41:12.662Z,24.47
2019-04-26T17:43:21.198Z,24.18
2019-04-26T17:45:30.650Z,24.85
2019-04-26T17:47:41.808Z,26.37
2019-04-26T17:49:50.194Z,36.68
2019-04-26T17:52:00.361Z,31.70
2019-04-26T17:54:26.680Z,33.53
2019-04-26T17:56:17.923Z,35.38
2019-04-26T17:58:31.076Z,28.07
2019-04-26T18:00:45.612Z,31.77
2019-04-26T18:02:48.464Z,30.45
2019-04-26T18:05:02.933Z,35.52
2019-04-26T18:07:33.864Z,25.37
2019-04-26T18:09:39.815Z,24.50
2019-04-26T18:11:28.883Z,23.10
2019-04-26T18:13:37.850Z,22.37
2019-04-26T18:15:48.475Z,21.07
2019-04-26T18:17:55.104Z,19.02
2019-04-26T18:20:23.499Z,15.18
2019-04-26T18:22:45.040Z,17.92
2019-04-26T18:24:52.880Z,19.57
2019-04-26T18:27:03.564Z,18.23
2019-04-26T18:29:13.149Z,17.00
2019-04-26T18:31:28.491Z,17.30
2019-04-26T18:33:32.814Z,18.17
2019-04-26T18:35:43.487Z,18.32
2019-04-26T18:37:50.409Z,19.30
2019-04-26T18:40:02.061Z,19.05
2019-04-26T18:42:10.400Z,18.75
2019-04-26T18:44:18.408Z,20.08
2019-04-26T18:46:35.841Z,18.90
2019-04-26T18:48:44.723Z,19.62
2019-04-26T18:50:52.707Z,22.32
2019-04-26T18:53:13.903Z,21.82
2019-04-26T18:55:29.287Z,21.85
2019-04-26T18:57:34.634Z,20.10
2019-04-26T18:59:44.820Z,18.77
2019-04-26T19:01:53.538Z,18.10
2019-04-26T19:04:09.866Z,17.52
2019-04-26T19:06:11.290Z,18.35
2019-04-26T19:08:20.870Z,17.85
2019-04-26T19:10:29.491Z,19.50
2019-04-26T19:12:39.543Z,19.25
2019-04-26T19:15:06.823Z,20.23
2019-04-26T19:17:12.919Z,23.10
2019-04-26T19:19:27.989Z,24.15
2019-04-26T19:21:46.983Z,23.40
2019-04-26T19:24:05.765Z,23.90
2019-04-26T19:26:09.399Z,22.90
2019-04-26T19:28:15.643Z,21.68
2019-04-26T19:30:23.778Z,22.45
2019-04-26T19:32:35.485Z,21.80
2019-04-26T19:34:42.148Z,22.90
2019-04-26T19:36:52.349Z,22.55
2019-04-26T19:39:00.112Z,24.15
2019-04-26T19:41:08.264Z,24.05
2019-04-26T19:43:28.247Z,24.15
2019-04-26T19:45:45.931Z,24.90
2019-04-26T19:48:02.323Z,27.10
2019-04-26T19:50:15.253Z,26.33
2019-04-26T19:52:33.665Z,28.47
2019-04-26T19:54:43.013Z,27.35
2019-04-26T19:56:56.603Z,27.65
2019-04-26T19:59:05.221Z,28.20
2019-04-26T20:01:16.485Z,29.90
2019-04-26T20:03:22.853Z,28.98
2019-04-26T20:05:32.023Z,27.22
2019-04-26T20:07:41.520Z,26.48
2019-04-26T20:09:52.302Z,27.17
2019-04-26T20:12:02.567Z,28.20
2019-04-26T20:14:12.095Z,28.23
2019-04-26T20:16:19.775Z,28.02
2019-04-26T20:18:27.582Z,31.93
2019-04-26T20:20:36.312Z,30.52
2019-04-26T20:22:44.455Z,31.55
2019-04-26T20:24:55.191Z,37.23
2019-04-26T20:27:03.526Z,35.17
2019-04-26T20:29:11.948Z,35.80
2019-04-26T20:31:31.005Z,32.33
2019-04-26T20:33:39.188Z,34.35
2019-04-26T20:35:47.472Z,38.55
2019-04-26T20:38:02.802Z,35.52
2019-04-26T20:40:18.462Z,47.10
2019-04-26T20:42:18.654Z,41.68
2019-04-26T20:44:28.673Z,38.05
2019-04-26T20:46:37.830Z,41.25
2019-04-26T20:48:46.253Z,39.92
2019-04-26T20:50:55.508Z,54.70
2019-04-26T20:53:04.523Z,56.75
2019-04-26T20:55:13.808Z,52.67
2019-04-26T20:57:26.530Z,50.08
2019-04-26T20:59:32.523Z,47.25
2019-04-26T21:01:43.590Z,52.10
2019-04-26T21:03:51.727Z,52.78
2019-04-26T21:06:01.432Z,55.00
2019-04-26T21:08:10.212Z,50.28
2019-04-26T21:10:22.139Z,50.43
2019-04-26T21:12:29.150Z,47.30
2019-04-26T21:14:37.739Z,52.55
2019-04-26T21:16:49.458Z,54.00
2019-04-26T21:18:56.900Z,52.27
2019-04-26T21:21:05.819Z,49.50
2019-04-26T21:23:15.367Z,45.63
2019-04-26T21:25:33.989Z,45.85
2019-04-26T21:27:46.630Z,42.95
2019-04-26T21:30:13.511Z,35.92
2019-04-26T21:32:24.526Z,39.75
2019-04-26T21:34:34.841Z,35.65
2019-04-26T21:36:59.737Z,38.15
2019-04-26T21:39:14.187Z,43.35
2019-04-26T21:41:23.921Z,51.45
2019-04-26T21:43:34.797Z,49.42
2019-04-26T21:45:43.945Z,52.95
2019-04-26T21:47:51.732Z,47.75
2019-04-26T21:50:00.756Z,45.00
2019-04-26T21:52:09.186Z,43.87
2019-04-26T21:54:18.101Z,38.05
2019-04-26T21:56:27.082Z,37.65
2019-04-26T21:58:35.031Z,37.65
2019-04-26T22:00:43.642Z,36.33
2019-04-26T22:02:53.446Z,34.58
2019-04-26T22:05:03.184Z,35.83
2019-04-26T22:07:12.507Z,33.88
2019-04-26T22:09:20.251Z,35.23
2019-04-26T22:11:28.369Z,35.95
2019-04-26T22:13:44.725Z,33.38
2019-04-26T22:15:54.571Z,33.50
2019-04-26T22:18:10.251Z,30.82
2019-04-26T22:20:21.377Z,34.10
2019-04-26T22:22:37.475Z,31.15
2019-04-26T22:24:55.544Z,30.57
2019-04-26T22:27:04.276Z,30.30
2019-04-26T22:29:16.673Z,32.42
2019-04-26T22:31:23.712Z,29.82
2019-04-26T22:33:32.644Z,30.08
2019-04-26T22:35:41.292Z,30.45
2019-04-26T22:37:49.196Z,26.37
2019-04-26T22:39:57.938Z,27.50
2019-04-26T22:42:06.757Z,25.97
2019-04-26T22:44:24.891Z,25.27
2019-04-26T22:46:46.494Z,26.57
2019-04-26T22:48:54.888Z,26.10
2019-04-26T22:51:00.951Z,27.65
2019-04-26T22:53:11.796Z,26.93
2019-04-26T22:55:23.975Z,25.55
2019-04-26T22:57:28.186Z,24.95
2019-04-26T22:59:38.202Z,26.62
2019-04-26T23:01:48.743Z,32.73
2019-04-26T23:03:55.528Z,31.65
2019-04-26T23:06:07.883Z,30.45
2019-04-26T23:08:14.720Z,25.23
2019-04-26T23:10:31.183Z,26.07
2019-04-26T23:12:39.294Z,23.55
2019-04-26T23:14:52.100Z,22.37
2019-04-26T23:17:16.312Z,23.18
2019-04-26T23:19:38.134Z,22.70
2019-04-26T23:21:52.958Z,21.57
2019-04-26T23:23:57.469Z,22.87
2019-04-26T23:26:06.230Z,24.05
2019-04-26T23:28:15.126Z,29.27
2019-04-26T23:30:23.698Z,27.70
2019-04-26T23:32:33.905Z,30.37
2019-04-26T23:34:41.991Z,34.98
2019-04-26T23:36:50.292Z,33.80
2019-04-26T23:38:58.573Z,28.32
2019-04-26T23:41:07.719Z,26.23
2019-04-26T23:43:16.944Z,25.15
2019-04-26T23:45:29.769Z,22.77
2019-04-26T23:47:39.459Z,21.20
2019-04-26T23:49:49.383Z,21.85
2019-04-26T23:51:58.879Z,21.82
2019-04-26T23:54:10.323Z,20.32
2019-04-26T23:56:24.632Z,21.52
2019-04-26T23:58:32.306Z,21.60
